createdAt,value
2023-03-23T16:08:54.001Z,26.53
2023-03-23T16:11:25.188Z,27.07
2023-03-23T16:13:53.478Z,27.25
2023-03-23T16:16:23.651Z,27.50
2023-03-23T16:18:52.286Z,28.13
2023-03-23T16:21:20.498Z,28.59
2023-03-23T16:23:48.853Z,28.71
2023-03-23T16:26:17.233Z,28.58
2023-03-23T16:28:45.726Z,28.95
2023-03-23T16:31:14.316Z,29.35
2023-03-23T16:33:42.695Z,29.78
2023-03-23T16:36:12.690Z,29.83
2023-03-23T16:38:49.014Z,29.84
2023-03-23T16:41:18.001Z,30.00
2023-03-23T16:43:46.074Z,30.16
2023-03-23T16:46:14.513Z,30.28
2023-03-23T16:48:43.126Z,30.26
2023-03-23T16:51:11.461Z,30.21
2023-03-23T16:53:39.596Z,30.33
2023-03-23T16:56:07.871Z,30.58
2023-03-23T16:58:36.354Z,30.40
2023-03-23T17:01:04.644Z,30.42
2023-03-23T17:03:32.836Z,30.56
2023-03-23T17:06:02.032Z,30.61
2023-03-23T17:08:30.410Z,30.73
2023-03-23T17:10:58.485Z,30.87
2023-03-23T17:13:28.197Z,31.27
2023-03-23T17:15:57.522Z,31.26
2023-03-23T17:18:26.608Z,31.47
2023-03-23T17:20:55.613Z,31.79
2023-03-23T17:23:24.551Z,32.25
2023-03-23T17:25:53.798Z,33.33
2023-03-23T17:28:22.868Z,33.58
2023-03-23T17:30:51.907Z,34.53
2023-03-23T17:33:20.081Z,34.27
2023-03-23T17:35:52.083Z,35.12
2023-03-23T17:38:21.232Z,35.33
2023-03-23T17:41:02.130Z,35.40
2023-03-23T17:43:30.612Z,35.71
2023-03-23T17:45:59.001Z,35.83
2023-03-23T17:48:27.483Z,36.67
2023-03-23T17:50:59.439Z,36.77
2023-03-23T17:53:27.617Z,37.24
2023-03-23T17:55:56.721Z,37.68
2023-03-23T17:58:26.605Z,37.77
2023-03-23T18:00:56.186Z,38.14
2023-03-23T18:03:24.790Z,38.33
2023-03-23T18:05:58.132Z,38.21
2023-03-23T18:08:38.350Z,38.91
2023-03-23T18:11:07.396Z,39.89
2023-03-23T18:13:36.589Z,39.57
2023-03-23T18:16:06.313Z,40.48
2023-03-23T18:18:35.607Z,40.27
2023-03-23T18:21:05.943Z,40.36
2023-03-23T18:23:39.046Z,40.77
2023-03-23T18:26:12.842Z,41.52
2023-03-23T18:28:43.559Z,41.47
2023-03-23T18:31:13.763Z,41.70
2023-03-23T18:33:45.258Z,43.09
2023-03-23T18:36:18.504Z,43.63
2023-03-23T18:38:47.789Z,43.00
2023-03-23T18:41:16.568Z,42.45
2023-03-23T18:43:45.143Z,42.28
2023-03-23T18:46:13.946Z,42.22
2023-03-23T18:48:42.322Z,41.84
2023-03-23T18:51:10.803Z,41.44
2023-03-23T18:53:38.890Z,41.15
2023-03-23T18:56:09.080Z,40.82
2023-03-23T18:58:37.908Z,40.57
2023-03-23T19:01:10.833Z,40.27
2023-03-23T19:03:39.731Z,40.31
2023-03-23T19:06:19.084Z,40.27
2023-03-23T19:08:47.827Z,40.39
2023-03-23T19:11:16.404Z,40.33
2023-03-23T19:13:58.477Z,40.55
2023-03-23T19:16:31.702Z,40.50
2023-03-23T19:19:01.976Z,40.52
2023-03-23T19:21:31.950Z,40.53
2023-03-23T19:24:01.770Z,40.52
2023-03-23T19:26:40.480Z,40.50
2023-03-23T19:31:46.661Z,40.47
2023-03-23T19:34:15.938Z,40.80
2023-03-23T19:36:54.299Z,40.72
2023-03-23T19:39:28.088Z,40.93
2023-03-23T19:41:56.373Z,41.14
2023-03-23T19:44:25.457Z,41.31
2023-03-23T19:46:54.516Z,41.46
2023-03-23T19:49:22.996Z,41.86
2023-03-23T19:52:05.077Z,42.14
2023-03-23T19:54:39.165Z,42.22
2023-03-23T19:57:08.233Z,42.34
2023-03-23T19:59:36.963Z,42.29
2023-03-23T20:02:06.203Z,42.70
2023-03-23T20:04:35.701Z,42.73
2023-03-23T20:07:07.783Z,42.98
2023-03-23T20:09:39.799Z,43.08
2023-03-23T20:12:08.086Z,43.28
2023-03-23T20:14:37.541Z,43.22
2023-03-23T20:17:10.006Z,43.73
2023-03-23T20:19:38.666Z,43.81
2023-03-23T20:22:07.520Z,43.99
2023-03-23T20:24:37.014Z,44.05
2023-03-23T20:27:06.490Z,44.23
2023-03-23T20:29:35.029Z,44.64
2023-03-23T20:32:03.772Z,44.37
2023-03-23T20:34:32.038Z,44.50
2023-03-23T20:37:02.041Z,44.92
2023-03-23T20:39:32.434Z,44.85
2023-03-23T20:42:06.052Z,45.24
2023-03-23T20:44:36.200Z,45.32
2023-03-23T20:47:05.023Z,45.34
2023-03-23T20:49:35.353Z,45.72
2023-03-23T20:52:04.750Z,45.49
2023-03-23T20:54:33.135Z,45.58
2023-03-23T20:57:02.162Z,45.78
2023-03-23T20:59:32.768Z,45.90
2023-03-23T21:02:00.947Z,45.82
2023-03-23T21:04:30.355Z,46.33
2023-03-23T21:06:58.740Z,46.24
2023-03-23T21:09:26.854Z,46.48
2023-03-23T21:11:55.477Z,46.55
2023-03-23T21:14:24.513Z,46.25
2023-03-23T21:16:52.895Z,46.52
2023-03-23T21:19:22.102Z,46.67
2023-03-23T21:21:55.754Z,46.44
2023-03-23T21:24:29.233Z,46.81
2023-03-23T21:26:58.514Z,46.48
2023-03-23T21:29:27.632Z,46.87
2023-03-23T21:34:28.359Z,46.26
2023-03-23T21:36:56.740Z,46.35
2023-03-23T21:39:26.400Z,46.71
2023-03-23T21:41:54.555Z,46.51
2023-03-23T21:44:23.499Z,46.97
2023-03-23T21:46:52.662Z,46.62
2023-03-23T21:49:21.324Z,46.50
2023-03-23T21:51:50.225Z,47.08
2023-03-23T21:54:21.161Z,46.80
2023-03-23T21:56:49.579Z,46.84
2023-03-23T21:59:18.028Z,46.90
2023-03-23T22:01:46.146Z,47.14
2023-03-23T22:04:14.402Z,47.10
2023-03-23T22:06:42.768Z,47.21
2023-03-23T22:09:11.069Z,47.18
2023-03-23T22:11:39.749Z,47.15
2023-03-23T22:14:08.875Z,47.02
2023-03-23T22:16:37.726Z,46.87
2023-03-23T22:19:06.894Z,46.66
2023-03-23T22:21:35.337Z,46.80
2023-03-23T22:24:03.638Z,46.74
2023-03-23T22:26:31.999Z,46.71
2023-03-23T22:29:01.102Z,46.90
2023-03-23T22:31:32.746Z,47.11
2023-03-23T22:34:01.786Z,47.12
2023-03-23T22:36:30.700Z,47.45
2023-03-23T22:38:59.246Z,47.53
2023-03-23T22:41:28.739Z,47.47
2023-03-23T22:43:57.443Z,47.82
2023-03-23T22:46:26.357Z,47.74
2023-03-23T22:48:55.021Z,48.11
2023-03-23T22:51:24.106Z,48.13
2023-03-23T22:53:52.313Z,48.52
2023-03-23T22:56:21.625Z,48.63
2023-03-23T22:58:50.004Z,49.16
2023-03-23T23:01:19.889Z,49.92
2023-03-23T23:03:48.775Z,49.82
2023-03-23T23:06:17.615Z,50.11
2023-03-23T23:08:46.986Z,50.03
2023-03-23T23:11:16.457Z,50.23
2023-03-23T23:13:44.912Z,50.15
2023-03-23T23:16:14.346Z,50.54
2023-03-23T23:18:43.841Z,50.74
2023-03-23T23:21:14.269Z,51.21
2023-03-23T23:23:42.645Z,51.07
2023-03-23T23:26:10.721Z,51.13
2023-03-23T23:28:38.906Z,51.38
2023-03-23T23:31:22.805Z,51.75
2023-03-23T23:33:51.130Z,51.44
2023-03-23T23:36:21.453Z,51.31
2023-03-23T23:38:49.637Z,51.30
2023-03-23T23:41:20.266Z,50.86
2023-03-23T23:43:48.758Z,50.77
2023-03-23T23:46:17.490Z,50.80
2023-03-23T23:48:49.000Z,50.92
2023-03-23T23:51:17.812Z,50.64
2023-03-23T23:53:53.594Z,50.73
2023-03-23T23:56:22.418Z,50.78
2023-03-23T23:58:51.861Z,50.55
